Nearby METAR Reports

 

KRYN - Tucson/Ryan Fld, Arizona, USA
Distance from station: SSW 16mi, 26km
Updated: Tue, 18-Jan-2022 6:45pm MST
Overcast
Overcast
 Wind from WSW
Wind: WSW 3 mph , 6 km/h
Temperature: 54°F , 12°C
Dew Point: 50°F , 10°C
Humidity: 88%
Barometer: 30.03 inHg , 1016.9 hPa
Clouds: Overcast
Visibility: 10 miles , 16 km
Cloud details: Partly cloudy 4600 ft
Overcast 5500 ft
2022/01/19 01:45 KRYN 190145Z 25003KT 10SM SCT046 OVC055 12/10 A3003
KTUS - Tucson, Arizona, USA
Distance from station: SSE 18mi, 28km
Updated: Tue, 18-Jan-2022 6:53pm MST
Light rain, Overcast
Light rain, Overcast
 Wind from NW
Wind: NW 6 mph , 9 km/h
Temperature: 55°F , 13°C
Dew Point: 50°F , 10°C
Humidity: 82%
Barometer: 30.04 inHg , 1017.3 hPa
Summary: Light rain
Clouds: Overcast
Visibility: 10 miles , 16 km
Cloud details: Mostly cloudy 6000 ft
Overcast 7500 ft
2022/01/19 01:53 KTUS 190153Z 31005KT 10SM -RA BKN060 OVC075 13/10 A3004 RMK AO2 SLP155 P0004 T01280100
 
KDMA - Davis/Tucson, Arizona, USA
Distance from station: SE 18mi, 29km
Updated: Tue, 18-Jan-2022 7:16pm MST
Mostly cloudy
Mostly cloudy
 Wind from WSW
Wind: WSW 3 mph , 6 km/h
Temperature: 54°F , 12°C
Dew Point: 48°F , 9°C
Humidity: 82%
Barometer: 30.02 inHg , 1016.6 hPa
Clouds: Mostly cloudy
Visibility: 10 miles , 16 km
Cloud details: Mostly cloudy 7000 ft
2022/01/19 02:16 KDMA 190216Z AUTO 25003KT 10SM BKN070 12/09 A3002 RMK AO2 RAE12DZB12E16 SLP151
KCGZ - Casa Granda, Arizona, USA
Distance from station: NW 57mi, 92km
Updated: Tue, 18-Jan-2022 6:56pm MST
Clear
Clear
 Wind from calm
Wind: Calm
Temperature: 59°F , 15°C
Dew Point: 36°F , 2°C
Humidity: 42%
Barometer: 30.00 inHg , 1015.9 hPa
Clouds: Clear
Visibility: 10 miles , 16 km
2022/01/19 01:56 KCGZ 190156Z AUTO 00000KT 10SM CLR 15/02 A3000 RMK AO2 SLP158 T01500017
 
KALK - Pioneer Airfield, Arizona, USA
Distance from station: SE 65mi, 104km
Updated: Tue, 18-Jan-2022 6:56pm MST
Clear
Clear
 
Temperature: 46°F , 8°C
Dew Point: 41°F , 5°C
Humidity: 82%
Barometer: 30.06 inHg , 1017.9 hPa
Clouds: Clear
Visibility: 10 miles , 16 km
2022/01/19 01:56 KALK 190156Z AUTO 10SM CLR 08/05 A3006 RMK AO2 SLP134 T00780050
KOLS - Nogales, Arizona, USA
Distance from station: S 67mi, 108km
Updated: Tue, 18-Jan-2022 6:54pm MST
Light rain, Overcast
Light rain, Overcast
 Wind from W
Wind: W 9 mph , 15 km/h
Temperature: 52°F , 11°C
Dew Point: 45°F , 7°C
Humidity: 77%
Barometer: 30.05 inHg , 1017.6 hPa
Summary: Light rain
Clouds: Overcast
Visibility: 10 miles , 16 km
Cloud details: Partly cloudy 3500 ft
Overcast 5500 ft
2022/01/19 01:54 KOLS 190154Z AUTO 27008KT 10SM -RA SCT035 OVC055 11/07 A3005 RMK AO2 RAB29 SLP147 P0000 T01110072
 
KFHU - Fort Huachuca, Arizona, USA
Distance from station: SE 69mi, 110km
Updated: Tue, 18-Jan-2022 6:58pm MST
Clear
Clear
 Wind from WSW
Wind: WSW 9 mph , 15 km/h
Temperature: 48°F , 9°C
Wind Chill: 44°F , 7°C
Dew Point: 41°F , 5°C
Humidity: 76%
Barometer: 30.06 inHg , 1017.9 hPa
Clouds: Clear
Visibility: 10 miles , 16 km
2022/01/19 01:58 KFHU 190158Z AUTO 25008KT 10SM CLR 09/05 A3006 RMK AO2 SLP153 P0000 T00940046
KIWA - Chandler/Mesa, Arizona, USA
Distance from station: NNW 73mi, 117km
Updated: Tue, 18-Jan-2022 6:55pm MST
Clear
Clear
 Wind from NNW
Wind: NNW 5 mph , 7 km/h
Temperature: 59°F , 15°C
Dew Point: 36°F , 2°C
Humidity: 42%
Barometer: 29.99 inHg , 1015.6 hPa
Clouds: Clear
Visibility: 10 miles , 16 km
2022/01/19 01:55 KIWA 190155Z 33004KT 10SM CLR 15/02 A2999